Terminal Aerodrome Forecast
Issued by NWS

Home | Current Version | Previous Version | Text Only | Print | Product List | Glossary On
Versions: 1 2 3 4 5 6 7 8 9 10 11 12 13 14 15
000
FTUS42 TJSJ 312339
TAFIST
TAF
TIST 312339Z 0100/0124 09010KT P6SM FEW035
     FM010500 07007KT P6SM VCSH SCT025 SCT040 PROB30 0109/0112
      VRB12KT 5SM SHRA BKN025 BKN040
     FM011300 12012KT P6SM -RA SCT025 BKN050=

USA.gov is the U.S. government's official web portal to all federal, state and local government web resources and services.